sensor_id;sensor_type;location;lat;lon;timestamp;temperature;humidity
21590;DHT22;10957;50.968;6.828;2022-07-06T00:00:03;13.50;67.70
21590;DHT22;10957;50.968;6.828;2022-07-06T00:05:05;13.60;58.50
21590;DHT22;10957;50.968;6.828;2022-07-06T00:10:06;13.40;56.40
21590;DHT22;10957;50.968;6.828;2022-07-06T00:15:07;13.50;67.00
21590;DHT22;10957;50.968;6.828;2022-07-06T00:20:09;13.00;78.20
21590;DHT22;10957;50.968;6.828;2022-07-06T00:25:09;13.00;89.90
21590;DHT22;10957;50.968;6.828;2022-07-06T00:30:11;12.40;95.20
21590;DHT22;10957;50.968;6.828;2022-07-06T00:35:12;12.80;99.90
21590;DHT22;10957;50.968;6.828;2022-07-06T00:40:13;12.50;98.70
21590;DHT22;10957;50.968;6.828;2022-07-06T00:45:15;12.50;97.00
21590;DHT22;10957;50.968;6.828;2022-07-06T00:50:17;12.30;96.00
21590;DHT22;10957;50.968;6.828;2022-07-06T00:55:23;12.10;97.60
21590;DHT22;10957;50.968;6.828;2022-07-06T01:00:26;12.10;99.90
21590;DHT22;10957;50.968;6.828;2022-07-06T01:05:27;12.20;99.90
21590;DHT22;10957;50.968;6.828;2022-07-06T01:10:28;11.90;99.90
21590;DHT22;10957;50.968;6.828;2022-07-06T01:15:29;11.90;99.90
21590;DHT22;10957;50.968;6.828;2022-07-06T01:20:30;11.70;99.90
21590;DHT22;10957;50.968;6.828;2022-07-06T01:25:31;11.70;99.90
21590;DHT22;10957;50.968;6.828;2022-07-06T01:30:32;11.70;99.90
21590;DHT22;10957;50.968;6.828;2022-07-06T01:35:35;11.70;99.90
21590;DHT22;10957;50.968;6.828;2022-07-06T01:40:37;11.40;99.90
21590;DHT22;10957;50.968;6.828;2022-07-06T01:45:38;11.70;99.90
21590;DHT22;10957;50.968;6.828;2022-07-06T01:50:39;11.70;99.90
21590;DHT22;10957;50.968;6.828;2022-07-06T01:55:40;11.80;99.90
21590;DHT22;10957;50.968;6.828;2022-07-06T02:00:41;11.50;99.90
21590;DHT22;10957;50.968;6.828;2022-07-06T02:05:42;11.70;99.90
21590;DHT22;10957;50.968;6.828;2022-07-06T02:10:43;11.10;99.90
21590;DHT22;10957;50.968;6.828;2022-07-06T02:15:43;11.30;99.90
21590;DHT22;10957;50.968;6.828;2022-07-06T02:20:45;11.20;99.90
21590;DHT22;10957;50.968;6.828;2022-07-06T02:25:46;10.70;99.90
21590;DHT22;10957;50.968;6.828;2022-07-06T02:30:47;11.10;99.90
21590;DHT22;10957;50.968;6.828;2022-07-06T02:35:48;10.60;99.90
21590;DHT22;10957;50.968;6.828;2022-07-06T02:40:50;10.80;99.90
21590;DHT22;10957;50.968;6.828;2022-07-06T02:45:51;10.70;99.90
21590;DHT22;10957;50.968;6.828;2022-07-06T02:50:52;10.70;99.90
21590;DHT22;10957;50.968;6.828;2022-07-06T02:55:53;10.80;99.90
21590;DHT22;10957;50.968;6.828;2022-07-06T03:00:54;10.50;99.90
21590;DHT22;10957;50.968;6.828;2022-07-06T03:05:55;10.30;99.90
21590;DHT22;10957;50.968;6.828;2022-07-06T03:10:56;10.30;99.90
21590;DHT22;10957;50.968;6.828;2022-07-06T03:15:58;10.20;99.90
21590;DHT22;10957;50.968;6.828;2022-07-06T03:20:59;10.10;99.90
21590;DHT22;10957;50.968;6.828;2022-07-06T03:26:00;10.50;99.90
21590;DHT22;10957;50.968;6.828;2022-07-06T03:31:02;10.30;99.90
21590;DHT22;10957;50.968;6.828;2022-07-06T03:36:03;10.60;99.90
21590;DHT22;10957;50.968;6.828;2022-07-06T03:41:22;10.30;99.90
21590;DHT22;10957;50.968;6.828;2022-07-06T03:46:41;10.80;99.90
21590;DHT22;10957;50.968;6.828;2022-07-06T03:51:42;10.50;99.90
21590;DHT22;10957;50.968;6.828;2022-07-06T03:56:44;10.50;99.90
21590;DHT22;10957;50.968;6.828;2022-07-06T04:01:48;10.70;99.90
21590;DHT22;10957;50.968;6.828;2022-07-06T04:06:51;10.30;99.90
21590;DHT22;10957;50.968;6.828;2022-07-06T04:11:53;10.70;99.90
21590;DHT22;10957;50.968;6.828;2022-07-06T04:16:54;10.30;99.90
21590;DHT22;10957;50.968;6.828;2022-07-06T04:21:55;11.00;99.90
21590;DHT22;10957;50.968;6.828;2022-07-06T04:26:56;11.00;99.90
21590;DHT22;10957;50.968;6.828;2022-07-06T04:31:57;11.10;99.90
21590;DHT22;10957;50.968;6.828;2022-07-06T04:36:58;10.90;99.90
21590;DHT22;10957;50.968;6.828;2022-07-06T04:42:00;11.00;99.90
21590;DHT22;10957;50.968;6.828;2022-07-06T04:47:01;10.80;99.90
21590;DHT22;10957;50.968;6.828;2022-07-06T04:52:03;11.30;99.90
21590;DHT22;10957;50.968;6.828;2022-07-06T04:57:04;11.30;99.90
21590;DHT22;10957;50.968;6.828;2022-07-06T05:02:06;11.40;99.90
21590;DHT22;10957;50.968;6.828;2022-07-06T05:07:07;11.80;99.90
21590;DHT22;10957;50.968;6.828;2022-07-06T05:12:09;12.10;99.90
21590;DHT22;10957;50.968;6.828;2022-07-06T05:17:10;12.30;99.90
21590;DHT22;10957;50.968;6.828;2022-07-06T05:22:12;11.90;99.90
21590;DHT22;10957;50.968;6.828;2022-07-06T05:27:13;12.60;99.90
21590;DHT22;10957;50.968;6.828;2022-07-06T05:32:13;12.30;99.90
21590;DHT22;10957;50.968;6.828;2022-07-06T05:37:14;12.90;99.90
21590;DHT22;10957;50.968;6.828;2022-07-06T05:42:16;12.70;99.90
21590;DHT22;10957;50.968;6.828;2022-07-06T05:47:18;13.40;99.90
21590;DHT22;10957;50.968;6.828;2022-07-06T05:52:39;13.20;99.90
21590;DHT22;10957;50.968;6.828;2022-07-06T05:57:40;13.60;99.90
21590;DHT22;10957;50.968;6.828;2022-07-06T06:02:43;13.70;99.90
21590;DHT22;10957;50.968;6.828;2022-07-06T06:07:47;13.60;99.90
21590;DHT22;10957;50.968;6.828;2022-07-06T06:12:51;14.20;99.90
21590;DHT22;10957;50.968;6.828;2022-07-06T06:17:51;14.80;96.10
21590;DHT22;10957;50.968;6.828;2022-07-06T06:22:54;14.90;78.00
21590;DHT22;10957;50.968;6.828;2022-07-06T06:27:55;15.90;52.00
21590;DHT22;10957;50.968;6.828;2022-07-06T06:38:10;16.90;27.10
21590;DHT22;10957;50.968;6.828;2022-07-06T06:43:11;18.00;13.80
21590;DHT22;10957;50.968;6.828;2022-07-06T06:48:20;17.90;14.00
21590;DHT22;10957;50.968;6.828;2022-07-06T06:53:20;17.10;10.10
21590;DHT22;10957;50.968;6.828;2022-07-06T06:58:21;17.50;13.70
21590;DHT22;10957;50.968;6.828;2022-07-06T07:03:22;17.20;9.80
21590;DHT22;10957;50.968;6.828;2022-07-06T07:08:23;17.00;14.40
21590;DHT22;10957;50.968;6.828;2022-07-06T07:13:24;17.60;14.90
21590;DHT22;10957;50.968;6.828;2022-07-06T07:18:25;17.30;12.40
21590;DHT22;10957;50.968;6.828;2022-07-06T07:23:26;17.40;13.60
21590;DHT22;10957;50.968;6.828;2022-07-06T07:28:27;16.50;14.80
21590;DHT22;10957;50.968;6.828;2022-07-06T07:33:27;16.50;18.00
21590;DHT22;10957;50.968;6.828;2022-07-06T07:38:28;16.50;17.20
21590;DHT22;10957;50.968;6.828;2022-07-06T07:43:29;16.40;12.90
21590;DHT22;10957;50.968;6.828;2022-07-06T07:48:30;16.60;12.50
21590;DHT22;10957;50.968;6.828;2022-07-06T07:53:30;17.20;8.30
21590;DHT22;10957;50.968;6.828;2022-07-06T07:58:31;17.20;8.30
21590;DHT22;10957;50.968;6.828;2022-07-06T08:03:32;17.70;5.70
21590;DHT22;10957;50.968;6.828;2022-07-06T08:08:33;17.80;4.00
21590;DHT22;10957;50.968;6.828;2022-07-06T08:13:34;17.30;3.10
21590;DHT22;10957;50.968;6.828;2022-07-06T08:18:35;17.20;7.20
21590;DHT22;10957;50.968;6.828;2022-07-06T08:23:36;16.60;5.20
21590;DHT22;10957;50.968;6.828;2022-07-06T08:28:37;16.70;7.20
21590;DHT22;10957;50.968;6.828;2022-07-06T08:33:37;16.60;5.20
21590;DHT22;10957;50.968;6.828;2022-07-06T08:38:38;16.80;5.30
21590;DHT22;10957;50.968;6.828;2022-07-06T08:43:39;16.70;3.80
21590;DHT22;10957;50.968;6.828;2022-07-06T08:48:41;16.70;6.20
21590;DHT22;10957;50.968;6.828;2022-07-06T08:53:43;16.90;2.90
21590;DHT22;10957;50.968;6.828;2022-07-06T08:58:44;17.00;1.90
21590;DHT22;10957;50.968;6.828;2022-07-06T09:03:45;17.10;3.00
21590;DHT22;10957;50.968;6.828;2022-07-06T09:08:49;16.80;1.50
21590;DHT22;10957;50.968;6.828;2022-07-06T09:13:50;16.80;2.80
21590;DHT22;10957;50.968;6.828;2022-07-06T09:18:51;16.80;3.80
21590;DHT22;10957;50.968;6.828;2022-07-06T09:23:57;16.90;5.70
21590;DHT22;10957;50.968;6.828;2022-07-06T09:28:58;16.80;1.70
21590;DHT22;10957;50.968;6.828;2022-07-06T09:34:08;16.80;4.00
21590;DHT22;10957;50.968;6.828;2022-07-06T09:39:28;16.90;5.50
21590;DHT22;10957;50.968;6.828;2022-07-06T09:44:37;17.00;4.20
21590;DHT22;10957;50.968;6.828;2022-07-06T09:49:40;17.10;4.60
21590;DHT22;10957;50.968;6.828;2022-07-06T09:54:41;17.30;5.50
21590;DHT22;10957;50.968;6.828;2022-07-06T09:59:51;17.40;3.20
21590;DHT22;10957;50.968;6.828;2022-07-06T10:04:53;18.10;2.00
21590;DHT22;10957;50.968;6.828;2022-07-06T10:09:55;18.90;1.00
21590;DHT22;10957;50.968;6.828;2022-07-06T10:14:56;18.70;1.00
21590;DHT22;10957;50.968;6.828;2022-07-06T10:19:58;19.30;1.00
21590;DHT22;10957;50.968;6.828;2022-07-06T10:24:59;19.10;1.00
21590;DHT22;10957;50.968;6.828;2022-07-06T10:30:01;19.60;1.00
21590;DHT22;10957;50.968;6.828;2022-07-06T10:35:02;19.70;1.00
21590;DHT22;10957;50.968;6.828;2022-07-06T10:40:03;19.50;1.00
21590;DHT22;10957;50.968;6.828;2022-07-06T10:50:34;19.50;1.00
21590;DHT22;10957;50.968;6.828;2022-07-06T10:55:37;19.50;1.00
21590;DHT22;10957;50.968;6.828;2022-07-06T11:00:53;20.00;1.00
21590;DHT22;10957;50.968;6.828;2022-07-06T11:05:58;20.00;1.00
21590;DHT22;10957;50.968;6.828;2022-07-06T11:11:11;20.30;1.00
21590;DHT22;10957;50.968;6.828;2022-07-06T11:16:14;19.90;1.00
21590;DHT22;10957;50.968;6.828;2022-07-06T11:21:45;19.90;1.00
21590;DHT22;10957;50.968;6.828;2022-07-06T11:26:48;19.70;1.00
21590;DHT22;10957;50.968;6.828;2022-07-06T11:32:00;20.80;1.00
21590;DHT22;10957;50.968;6.828;2022-07-06T11:37:06;20.90;1.00
21590;DHT22;10957;50.968;6.828;2022-07-06T11:42:12;20.10;1.00
21590;DHT22;10957;50.968;6.828;2022-07-06T11:47:14;19.80;1.00
21590;DHT22;10957;50.968;6.828;2022-07-06T11:52:15;19.70;1.00
21590;DHT22;10957;50.968;6.828;2022-07-06T11:57:16;20.20;1.00
21590;DHT22;10957;50.968;6.828;2022-07-06T12:02:17;20.00;1.00
21590;DHT22;10957;50.968;6.828;2022-07-06T12:07:18;20.50;1.00
21590;DHT22;10957;50.968;6.828;2022-07-06T12:12:19;20.80;1.00
21590;DHT22;10957;50.968;6.828;2022-07-06T12:17:20;21.60;1.00
21590;DHT22;10957;50.968;6.828;2022-07-06T12:22:27;20.60;1.00
21590;DHT22;10957;50.968;6.828;2022-07-06T12:27:27;20.50;1.00
21590;DHT22;10957;50.968;6.828;2022-07-06T12:32:33;20.30;1.00
21590;DHT22;10957;50.968;6.828;2022-07-06T12:37:37;20.60;1.00
21590;DHT22;10957;50.968;6.828;2022-07-06T12:42:48;20.60;1.00
21590;DHT22;10957;50.968;6.828;2022-07-06T12:48:04;21.10;1.00
21590;DHT22;10957;50.968;6.828;2022-07-06T12:53:06;20.70;1.00
21590;DHT22;10957;50.968;6.828;2022-07-06T12:58:18;20.60;1.00
21590;DHT22;10957;50.968;6.828;2022-07-06T13:03:19;20.50;1.00
21590;DHT22;10957;50.968;6.828;2022-07-06T13:08:20;20.90;1.00
21590;DHT22;10957;50.968;6.828;2022-07-06T13:13:21;20.60;1.00
21590;DHT22;10957;50.968;6.828;2022-07-06T13:18:23;21.40;1.00
21590;DHT22;10957;50.968;6.828;2022-07-06T13:23:24;21.30;1.00
21590;DHT22;10957;50.968;6.828;2022-07-06T13:28:25;21.40;1.00
21590;DHT22;10957;50.968;6.828;2022-07-06T13:33:26;21.40;1.00
21590;DHT22;10957;50.968;6.828;2022-07-06T13:38:26;21.30;1.00
21590;DHT22;10957;50.968;6.828;2022-07-06T13:43:27;21.00;1.00
21590;DHT22;10957;50.968;6.828;2022-07-06T13:48:36;21.10;1.00
21590;DHT22;10957;50.968;6.828;2022-07-06T13:53:37;22.00;1.00
21590;DHT22;10957;50.968;6.828;2022-07-06T13:58:38;22.00;1.00
21590;DHT22;10957;50.968;6.828;2022-07-06T14:03:39;22.10;1.00
21590;DHT22;10957;50.968;6.828;2022-07-06T14:08:40;22.30;1.00
21590;DHT22;10957;50.968;6.828;2022-07-06T14:13:41;22.50;1.00
21590;DHT22;10957;50.968;6.828;2022-07-06T14:18:42;21.90;1.00
21590;DHT22;10957;50.968;6.828;2022-07-06T14:23:43;21.50;1.00
21590;DHT22;10957;50.968;6.828;2022-07-06T14:28:44;21.70;1.00
21590;DHT22;10957;50.968;6.828;2022-07-06T14:33:45;21.50;1.00
21590;DHT22;10957;50.968;6.828;2022-07-06T14:38:47;21.50;1.00
21590;DHT22;10957;50.968;6.828;2022-07-06T14:43:47;22.00;1.00
21590;DHT22;10957;50.968;6.828;2022-07-06T14:48:48;21.90;1.00
21590;DHT22;10957;50.968;6.828;2022-07-06T14:53:49;22.50;1.00
21590;DHT22;10957;50.968;6.828;2022-07-06T14:58:49;22.00;1.00
21590;DHT22;10957;50.968;6.828;2022-07-06T15:03:50;21.30;1.00
21590;DHT22;10957;50.968;6.828;2022-07-06T15:08:51;21.80;1.00
21590;DHT22;10957;50.968;6.828;2022-07-06T15:17:15;22.20;1.00
21590;DHT22;10957;50.968;6.828;2022-07-06T15:22:17;21.80;1.00
21590;DHT22;10957;50.968;6.828;2022-07-06T15:27:18;21.30;1.00
21590;DHT22;10957;50.968;6.828;2022-07-06T15:32:18;21.30;1.00
21590;DHT22;10957;50.968;6.828;2022-07-06T15:37:19;21.40;1.00
21590;DHT22;10957;50.968;6.828;2022-07-06T15:42:20;22.30;1.00
21590;DHT22;10957;50.968;6.828;2022-07-06T15:47:21;22.30;1.00
21590;DHT22;10957;50.968;6.828;2022-07-06T15:52:24;22.30;1.00
21590;DHT22;10957;50.968;6.828;2022-07-06T15:57:25;22.40;1.00
21590;DHT22;10957;50.968;6.828;2022-07-06T16:02:26;22.50;1.00
21590;DHT22;10957;50.968;6.828;2022-07-06T16:07:26;22.60;1.00
21590;DHT22;10957;50.968;6.828;2022-07-06T16:12:27;22.80;1.00
21590;DHT22;10957;50.968;6.828;2022-07-06T16:17:28;22.40;1.00
21590;DHT22;10957;50.968;6.828;2022-07-06T16:22:29;22.30;1.00
21590;DHT22;10957;50.968;6.828;2022-07-06T16:27:31;22.40;1.00
21590;DHT22;10957;50.968;6.828;2022-07-06T16:32:32;22.50;1.00
21590;DHT22;10957;50.968;6.828;2022-07-06T16:37:33;22.20;1.00
21590;DHT22;10957;50.968;6.828;2022-07-06T16:42:33;22.20;1.00
21590;DHT22;10957;50.968;6.828;2022-07-06T16:47:34;21.90;1.00
21590;DHT22;10957;50.968;6.828;2022-07-06T16:52:35;22.10;1.00
21590;DHT22;10957;50.968;6.828;2022-07-06T16:57:36;22.20;1.00
21590;DHT22;10957;50.968;6.828;2022-07-06T17:02:37;21.60;1.00
21590;DHT22;10957;50.968;6.828;2022-07-06T17:07:38;21.60;1.00
21590;DHT22;10957;50.968;6.828;2022-07-06T17:12:39;21.70;1.00
21590;DHT22;10957;50.968;6.828;2022-07-06T17:17:40;21.30;1.00
21590;DHT22;10957;50.968;6.828;2022-07-06T17:22:40;21.20;1.00
21590;DHT22;10957;50.968;6.828;2022-07-06T17:27:41;21.20;1.00
21590;DHT22;10957;50.968;6.828;2022-07-06T17:32:42;21.40;1.00
21590;DHT22;10957;50.968;6.828;2022-07-06T17:37:43;21.20;1.00
21590;DHT22;10957;50.968;6.828;2022-07-06T17:42:44;21.10;1.00
21590;DHT22;10957;50.968;6.828;2022-07-06T17:47:46;20.90;1.00
21590;DHT22;10957;50.968;6.828;2022-07-06T17:52:47;20.80;1.00
21590;DHT22;10957;50.968;6.828;2022-07-06T17:57:48;20.80;1.00
21590;DHT22;10957;50.968;6.828;2022-07-06T18:02:48;20.80;1.00
21590;DHT22;10957;50.968;6.828;2022-07-06T18:07:49;20.70;1.00
21590;DHT22;10957;50.968;6.828;2022-07-06T18:12:51;20.60;1.00
21590;DHT22;10957;50.968;6.828;2022-07-06T18:17:52;20.50;1.00
21590;DHT22;10957;50.968;6.828;2022-07-06T18:22:55;20.50;1.00
21590;DHT22;10957;50.968;6.828;2022-07-06T18:27:56;20.30;1.00
21590;DHT22;10957;50.968;6.828;2022-07-06T18:32:56;20.20;1.00
21590;DHT22;10957;50.968;6.828;2022-07-06T18:37:57;20.20;1.00
21590;DHT22;10957;50.968;6.828;2022-07-06T18:42:58;20.20;1.00
21590;DHT22;10957;50.968;6.828;2022-07-06T18:47:59;20.10;1.00
21590;DHT22;10957;50.968;6.828;2022-07-06T18:53:00;20.00;1.00
21590;DHT22;10957;50.968;6.828;2022-07-06T18:58:01;19.90;1.00
21590;DHT22;10957;50.968;6.828;2022-07-06T19:03:02;19.90;1.00
21590;DHT22;10957;50.968;6.828;2022-07-06T19:08:03;19.80;1.00
21590;DHT22;10957;50.968;6.828;2022-07-06T19:13:04;19.70;1.00
21590;DHT22;10957;50.968;6.828;2022-07-06T19:18:04;19.60;1.00
21590;DHT22;10957;50.968;6.828;2022-07-06T19:23:05;19.60;1.00
21590;DHT22;10957;50.968;6.828;2022-07-06T19:28:06;19.50;1.00
21590;DHT22;10957;50.968;6.828;2022-07-06T19:33:07;19.50;1.00
21590;DHT22;10957;50.968;6.828;2022-07-06T19:38:08;19.50;1.00
21590;DHT22;10957;50.968;6.828;2022-07-06T19:43:09;19.30;1.00
21590;DHT22;10957;50.968;6.828;2022-07-06T19:48:09;19.10;1.00
21590;DHT22;10957;50.968;6.828;2022-07-06T19:53:10;19.20;1.00
21590;DHT22;10957;50.968;6.828;2022-07-06T19:58:11;19.00;1.00
21590;DHT22;10957;50.968;6.828;2022-07-06T20:03:11;18.80;1.00
21590;DHT22;10957;50.968;6.828;2022-07-06T20:08:13;18.70;1.00
21590;DHT22;10957;50.968;6.828;2022-07-06T20:13:14;18.60;1.00
21590;DHT22;10957;50.968;6.828;2022-07-06T20:18:16;18.60;1.00
21590;DHT22;10957;50.968;6.828;2022-07-06T20:23:17;18.40;1.50
21590;DHT22;10957;50.968;6.828;2022-07-06T20:28:21;18.40;1.20
21590;DHT22;10957;50.968;6.828;2022-07-06T20:33:22;18.40;1.00
21590;DHT22;10957;50.968;6.828;2022-07-06T20:38:22;18.40;1.30
21590;DHT22;10957;50.968;6.828;2022-07-06T20:43:23;18.50;1.00
21590;DHT22;10957;50.968;6.828;2022-07-06T20:48:24;18.40;1.20
21590;DHT22;10957;50.968;6.828;2022-07-06T20:53:25;18.30;2.50
21590;DHT22;10957;50.968;6.828;2022-07-06T20:58:26;18.30;2.10
21590;DHT22;10957;50.968;6.828;2022-07-06T21:03:27;18.20;3.70
21590;DHT22;10957;50.968;6.828;2022-07-06T21:08:30;18.20;3.80
21590;DHT22;10957;50.968;6.828;2022-07-06T21:13:31;18.20;3.80
21590;DHT22;10957;50.968;6.828;2022-07-06T21:18:31;18.20;3.90
21590;DHT22;10957;50.968;6.828;2022-07-06T21:23:32;18.30;4.70
21590;DHT22;10957;50.968;6.828;2022-07-06T21:28:35;18.30;4.30
21590;DHT22;10957;50.968;6.828;2022-07-06T21:33:36;18.30;3.80
21590;DHT22;10957;50.968;6.828;2022-07-06T21:38:38;18.30;3.80
21590;DHT22;10957;50.968;6.828;2022-07-06T21:43:39;18.30;3.30
21590;DHT22;10957;50.968;6.828;2022-07-06T21:48:40;18.40;3.90
21590;DHT22;10957;50.968;6.828;2022-07-06T21:53:41;18.40;3.10
21590;DHT22;10957;50.968;6.828;2022-07-06T21:58:42;18.20;6.90
21590;DHT22;10957;50.968;6.828;2022-07-06T22:03:43;18.20;6.40
21590;DHT22;10957;50.968;6.828;2022-07-06T22:08:43;18.10;8.90
21590;DHT22;10957;50.968;6.828;2022-07-06T22:13:44;18.10;10.60
21590;DHT22;10957;50.968;6.828;2022-07-06T22:18:47;18.00;12.40
21590;DHT22;10957;50.968;6.828;2022-07-06T22:23:49;18.00;14.00
21590;DHT22;10957;50.968;6.828;2022-07-06T22:28:50;18.00;14.00
21590;DHT22;10957;50.968;6.828;2022-07-06T22:33:51;17.90;15.80
21590;DHT22;10957;50.968;6.828;2022-07-06T22:38:52;17.90;16.20
21590;DHT22;10957;50.968;6.828;2022-07-06T22:43:52;17.80;18.00
21590;DHT22;10957;50.968;6.828;2022-07-06T22:48:57;17.70;18.80
21590;DHT22;10957;50.968;6.828;2022-07-06T22:53:58;17.60;20.10
21590;DHT22;10957;50.968;6.828;2022-07-06T22:58:58;17.40;23.50
21590;DHT22;10957;50.968;6.828;2022-07-06T23:03:59;17.50;23.50
21590;DHT22;10957;50.968;6.828;2022-07-06T23:09:00;17.40;25.80
21590;DHT22;10957;50.968;6.828;2022-07-06T23:14:00;17.50;28.40
21590;DHT22;10957;50.968;6.828;2022-07-06T23:19:01;17.40;28.30
21590;DHT22;10957;50.968;6.828;2022-07-06T23:24:02;17.30;29.70
21590;DHT22;10957;50.968;6.828;2022-07-06T23:29:03;17.30;29.90
21590;DHT22;10957;50.968;6.828;2022-07-06T23:34:04;17.30;33.20
21590;DHT22;10957;50.968;6.828;2022-07-06T23:39:04;17.20;32.90
21590;DHT22;10957;50.968;6.828;2022-07-06T23:44:05;17.20;35.50
21590;DHT22;10957;50.968;6.828;2022-07-06T23:49:06;17.20;37.70
21590;DHT22;10957;50.968;6.828;2022-07-06T23:54:07;17.20;39.90
21590;DHT22;10957;50.968;6.828;2022-07-06T23:59:08;17.20;39.70
